Time;durP1;ratioP1;P1;durP2;ratioP2;P2;SDS_P1;SDS_P2;PMS_P1;PMS_P2;Temp;Humidity;BMP_temperature;BMP_pressure;BME280_temperature;BME280_humidity;BME280_pressure;Samples;Min_cycle;Max_cycle;Signal;HPM_P1;HPM_P2
2024/03/09 00:00:16;;;;;;;16.30;10.05;;;;;;;;;;4974253;28;20048;-82
2024/03/09 00:02:47;;;;;;;17.63;10.25;;;;;;;;;;4985338;28;20070;-84
2024/03/09 00:05:15;;;;;;;14.93;9.25;;;;;;;;;;4986697;28;20369;-84
2024/03/09 00:07:42;;;;;;;13.25;8.25;;;;;;;;;;4968164;28;20126;-84
2024/03/09 00:10:11;;;;;;;15.90;8.48;;;;;;;;;;4970199;28;20086;-83
2024/03/09 00:12:42;;;;;;;17.52;9.60;;;;;;;;;;4966194;28;20090;-81
2024/03/09 00:15:11;;;;;;;17.60;8.98;;;;;;;;;;4977845;28;20062;-81
2024/03/09 00:17:41;;;;;;;16.60;9.05;;;;;;;;;;4976800;28;20051;-82
2024/03/09 00:20:15;;;;;;;14.77;8.73;;;;;;;;;;4980100;28;20513;-81
2024/03/09 00:22:43;;;;;;;17.40;9.48;;;;;;;;;;4965597;28;20047;-82
2024/03/09 00:25:10;;;;;;;14.30;8.52;;;;;;;;;;4972942;28;20055;-83
2024/03/09 00:27:40;;;;;;;13.93;8.48;;;;;;;;;;4973046;28;20047;-80
2024/03/09 00:30:13;;;;;;;14.38;8.45;;;;;;;;;;4974385;28;20078;-83
2024/03/09 00:32:40;;;;;;;17.52;9.25;;;;;;;;;;4990114;28;20084;-82
2024/03/09 00:35:08;;;;;;;17.63;9.77;;;;;;;;;;4983479;28;20105;-84
2024/03/09 00:37:36;;;;;;;15.50;9.25;;;;;;;;;;4957142;28;20138;-84
2024/03/09 00:40:04;;;;;;;15.50;9.52;;;;;;;;;;4964182;28;20043;-84
2024/03/09 00:42:32;;;;;;;17.35;9.02;;;;;;;;;;4968952;28;20062;-84
2024/03/09 00:45:05;;;;;;;18.58;9.45;;;;;;;;;;4969590;28;20054;-84
2024/03/09 00:47:34;;;;;;;19.58;11.52;;;;;;;;;;4973942;28;20109;-84
2024/03/09 00:50:05;;;;;;;17.63;9.50;;;;;;;;;;4973265;28;20089;-83
2024/03/09 00:52:33;;;;;;;19.60;10.48;;;;;;;;;;4989984;28;20114;-82
2024/03/09 00:55:00;;;;;;;14.00;8.93;;;;;;;;;;4973498;28;20082;-83
2024/03/09 00:57:26;;;;;;;17.52;10.40;;;;;;;;;;4965815;28;20051;-84
2024/03/09 00:59:54;;;;;;;18.10;10.50;;;;;;;;;;4963854;28;20087;-83
2024/03/09 01:02:20;;;;;;;16.33;10.38;;;;;;;;;;4964437;28;20058;-83
2024/03/09 01:04:50;;;;;;;17.27;9.23;;;;;;;;;;4961104;28;20777;-82
2024/03/09 01:07:19;;;;;;;20.13;10.25;;;;;;;;;;4986597;28;20133;-83
2024/03/09 01:09:49;;;;;;;16.58;9.55;;;;;;;;;;4977621;28;20520;-82
2024/03/09 01:12:17;;;;;;;17.27;9.93;;;;;;;;;;4962304;28;20059;-83
2024/03/09 01:14:48;;;;;;;14.98;9.68;;;;;;;;;;4962141;28;20500;-83
2024/03/09 01:17:17;;;;;;;18.63;10.38;;;;;;;;;;4962292;28;20058;-83
2024/03/09 01:19:45;;;;;;;19.45;10.57;;;;;;;;;;4977022;28;20109;-81
2024/03/09 01:22:12;;;;;;;17.92;10.90;;;;;;;;;;4979205;28;20082;-82
2024/03/09 01:24:39;;;;;;;18.92;10.32;;;;;;;;;;4976215;28;20051;-83
2024/03/09 01:27:06;;;;;;;16.30;9.95;;;;;;;;;;4980435;28;20066;-82
2024/03/09 01:29:32;;;;;;;21.23;10.80;;;;;;;;;;4981026;28;20059;-83
2024/03/09 01:32:05;;;;;;;17.75;10.30;;;;;;;;;;4964511;28;20410;-83
2024/03/09 01:34:31;;;;;;;18.23;9.95;;;;;;;;;;4980447;28;20050;-82
2024/03/09 01:36:58;;;;;;;15.20;9.18;;;;;;;;;;4962635;28;20059;-82
2024/03/09 01:39:25;;;;;;;14.75;9.25;;;;;;;;;;4979745;28;20058;-82
2024/03/09 01:41:52;;;;;;;15.50;9.40;;;;;;;;;;4978260;28;20461;-82
2024/03/09 01:44:21;;;;;;;15.88;9.57;;;;;;;;;;4978496;28;20057;-83
2024/03/09 01:46:49;;;;;;;15.98;9.70;;;;;;;;;;4977738;28;20146;-81
2024/03/09 01:49:17;;;;;;;13.40;8.98;;;;;;;;;;4962098;28;20050;-81
2024/03/09 01:51:46;;;;;;;15.05;9.25;;;;;;;;;;4962462;28;20121;-81
2024/03/09 01:54:19;;;;;;;16.27;8.98;;;;;;;;;;4977334;28;20052;-83
2024/03/09 01:56:45;;;;;;;;;;;;;;;;;;4965444;28;20054;-82
2024/03/09 01:59:12;;;;;;;16.80;9.45;;;;;;;;;;4983720;28;19942;-82
2024/03/09 02:01:39;;;;;;;15.93;8.82;;;;;;;;;;4965093;28;20062;-81
2024/03/09 02:04:05;;;;;;;17.48;9.50;;;;;;;;;;4977685;28;20078;-83
2024/03/09 02:06:32;;;;;;;15.80;9.48;;;;;;;;;;4957830;28;20046;-83
2024/03/09 02:08:59;;;;;;;18.65;9.88;;;;;;;;;;4977334;28;20051;-84
2024/03/09 02:11:30;;;;;;;18.65;10.10;;;;;;;;;;4960173;28;20055;-82
2024/03/09 02:13:57;;;;;;;14.50;8.88;;;;;;;;;;4977189;28;20051;-82
2024/03/09 02:16:23;;;;;;;15.82;9.20;;;;;;;;;;4955096;28;20054;-83
2024/03/09 02:18:51;;;;;;;18.23;9.18;;;;;;;;;;4961154;28;20413;-83
2024/03/09 02:21:17;;;;;;;19.48;10.45;;;;;;;;;;4972200;28;20047;-84
2024/03/09 02:23:47;;;;;;;16.88;10.18;;;;;;;;;;4975701;28;20054;-84
2024/03/09 02:26:15;;;;;;;19.60;10.23;;;;;;;;;;4982135;28;20051;-82
2024/03/09 02:28:55;;;;;;;18.17;9.38;;;;;;;;;;4965512;28;20502;-82
2024/03/09 02:31:22;;;;;;;16.25;9.27;;;;;;;;;;4981089;28;20536;-82
2024/03/09 02:33:54;;;;;;;16.30;9.52;;;;;;;;;;4980884;28;20503;-81
2024/03/09 02:36:28;;;;;;;16.25;9.50;;;;;;;;;;4978882;28;20055;-81
2024/03/09 02:38:55;;;;;;;18.10;9.45;;;;;;;;;;4979605;28;20130;-81
2024/03/09 02:41:24;;;;;;;16.90;9.15;;;;;;;;;;4979734;28;20054;-81
2024/03/09 02:43:51;;;;;;;15.80;9.50;;;;;;;;;;4979446;28;20090;-81
2024/03/09 02:46:21;;;;;;;17.42;9.80;;;;;;;;;;4962828;28;20137;-81
2024/03/09 02:48:48;;;;;;;18.85;11.00;;;;;;;;;;4980000;28;20070;-83
2024/03/09 02:51:16;;;;;;;15.68;9.75;;;;;;;;;;4963696;28;20436;-82
2024/03/09 02:53:43;;;;;;;15.50;9.52;;;;;;;;;;4982255;28;20109;-83
2024/03/09 02:56:09;;;;;;;18.25;9.75;;;;;;;;;;4998856;28;20054;-80
2024/03/09 02:58:37;;;;;;;17.55;9.48;;;;;;;;;;4995110;28;20085;-81
2024/03/09 03:01:07;;;;;;;18.85;9.75;;;;;;;;;;4997395;28;20059;-81
2024/03/09 03:06:18;;;;;;;14.88;9.25;;;;;;;;;;5011959;28;20054;-81
2024/03/09 03:08:45;;;;;;;18.58;9.23;;;;;;;;;;4994988;28;20086;-82
2024/03/09 03:11:16;;;;;;;19.42;10.23;;;;;;;;;;5000631;28;20058;-81
2024/03/09 03:13:44;;;;;;;15.65;9.68;;;;;;;;;;5000828;28;20089;-81
2024/03/09 03:16:25;;;;;;;16.63;9.50;;;;;;;;;;5003184;28;20058;-83
2024/03/09 03:18:53;;;;;;;14.70;8.43;;;;;;;;;;5010376;28;20118;-82
2024/03/09 03:21:19;;;;;;;21.98;9.32;;;;;;;;;;5011979;28;20120;-82
2024/03/09 03:23:49;;;;;;;14.13;8.23;;;;;;;;;;5012552;28;20066;-83
2024/03/09 03:26:16;;;;;;;15.32;9.68;;;;;;;;;;5010954;28;20062;-82
2024/03/09 03:28:47;;;;;;;18.27;9.73;;;;;;;;;;5002912;28;20420;-82
2024/03/09 03:31:18;;;;;;;14.98;8.27;;;;;;;;;;5001852;28;20054;-84
2024/03/09 03:33:45;;;;;;;17.25;9.38;;;;;;;;;;4999992;28;20069;-84
2024/03/09 03:36:18;;;;;;;16.30;9.10;;;;;;;;;;5000151;28;20058;-84
2024/03/09 03:38:46;;;;;;;14.43;8.57;;;;;;;;;;4998461;28;20054;-84
2024/03/09 03:41:14;;;;;;;15.27;8.00;;;;;;;;;;4996995;28;20047;-84
2024/03/09 03:43:42;;;;;;;15.45;8.60;;;;;;;;;;4997261;28;20050;-85
2024/03/09 03:46:09;;;;;;;15.18;8.60;;;;;;;;;;4994894;28;20114;-86
2024/03/09 03:48:37;;;;;;;13.38;8.85;;;;;;;;;;4993406;28;20093;-85
2024/03/09 03:51:03;;;;;;;15.23;9.02;;;;;;;;;;5000387;28;20603;-83
2024/03/09 03:53:30;;;;;;;12.80;7.80;;;;;;;;;;5001767;28;20141;-83
2024/03/09 03:55:58;;;;;;;14.57;9.40;;;;;;;;;;4998656;28;20154;-84
2024/03/09 03:58:25;;;;;;;12.52;8.52;;;;;;;;;;4994603;28;20081;-82
2024/03/09 04:00:54;;;;;;;17.40;9.02;;;;;;;;;;4998893;28;20050;-82
2024/03/09 04:03:20;;;;;;;12.98;8.45;;;;;;;;;;4998762;28;20059;-82
2024/03/09 04:05:53;;;;;;;17.17;8.80;;;;;;;;;;4998726;28;20093;-82
2024/03/09 04:08:19;;;;;;;13.25;8.23;;;;;;;;;;4983040;28;20073;-83
2024/03/09 04:10:46;;;;;;;17.23;9.00;;;;;;;;;;4999784;28;20096;-84
2024/03/09 04:13:13;;;;;;;16.13;9.35;;;;;;;;;;4998486;28;20065;-83
2024/03/09 04:15:40;;;;;;;17.15;8.95;;;;;;;;;;4998722;28;20062;-82
2024/03/09 04:18:07;;;;;;;17.63;9.50;;;;;;;;;;4987934;28;20077;-82
2024/03/09 04:20:34;;;;;;;14.52;8.77;;;;;;;;;;5001963;28;20042;-82
2024/03/09 04:23:04;;;;;;;14.85;8.55;;;;;;;;;;5002570;28;20078;-83
2024/03/09 04:25:35;;;;;;;13.68;8.13;;;;;;;;;;5000162;28;20050;-82
2024/03/09 04:28:02;;;;;;;14.55;9.88;;;;;;;;;;4984976;28;20595;-83
2024/03/09 04:30:33;;;;;;;16.23;9.07;;;;;;;;;;4999833;28;20062;-83
2024/03/09 04:33:04;;;;;;;16.85;9.18;;;;;;;;;;4999581;28;20068;-82
2024/03/09 04:35:33;;;;;;;14.95;8.90;;;;;;;;;;5001536;28;20050;-81
2024/03/09 04:38:04;;;;;;;14.90;9.13;;;;;;;;;;4986976;28;20059;-82
2024/03/09 04:40:33;;;;;;;16.10;9.70;;;;;;;;;;4999043;28;20054;-83
2024/03/09 04:43:03;;;;;;;18.00;10.63;;;;;;;;;;4998927;28;20109;-83
2024/03/09 04:45:31;;;;;;;18.38;9.90;;;;;;;;;;5000784;28;20054;-82
2024/03/09 04:48:01;;;;;;;16.02;8.73;;;;;;;;;;4991459;28;20137;-83
2024/03/09 04:50:28;;;;;;;17.15;9.13;;;;;;;;;;4985020;28;20054;-83
2024/03/09 04:52:55;;;;;;;14.38;9.35;;;;;;;;;;4982334;28;20051;-82
2024/03/09 04:55:22;;;;;;;14.10;8.70;;;;;;;;;;4966107;28;20053;-84
2024/03/09 04:57:50;;;;;;;13.85;8.73;;;;;;;;;;4959921;28;20055;-84
2024/03/09 05:00:19;;;;;;;14.52;8.55;;;;;;;;;;4962913;28;20047;-84
2024/03/09 05:02:46;;;;;;;15.77;8.43;;;;;;;;;;4977630;28;20105;-84
2024/03/09 05:05:13;;;;;;;13.30;8.77;;;;;;;;;;4962744;28;20133;-84
2024/03/09 05:07:43;;;;;;;16.10;8.23;;;;;;;;;;4979949;28;20083;-81
2024/03/09 05:10:15;;;;;;;16.50;9.25;;;;;;;;;;4974079;28;20050;-83
2024/03/09 05:12:42;;;;;;;14.02;8.27;;;;;;;;;;4979810;28;20122;-84
2024/03/09 05:15:11;;;;;;;17.15;9.48;;;;;;;;;;4979402;28;20493;-83
2024/03/09 05:17:38;;;;;;;14.75;9.07;;;;;;;;;;4978047;28;20499;-83
2024/03/09 05:20:11;;;;;;;14.23;8.65;;;;;;;;;;4972186;28;20057;-83
2024/03/09 05:22:38;;;;;;;13.57;8.50;;;;;;;;;;4958308;28;20087;-83
2024/03/09 05:25:10;;;;;;;15.18;9.63;;;;;;;;;;4981718;28;20054;-83
2024/03/09 05:27:43;;;;;;;16.73;9.77;;;;;;;;;;4963182;28;20054;-83
2024/03/09 05:30:14;;;;;;;18.67;9.88;;;;;;;;;;4971905;28;20109;-79
2024/03/09 05:32:42;;;;;;;15.95;9.00;;;;;;;;;;4974796;28;20078;-84
2024/03/09 05:35:13;;;;;;;17.65;8.65;;;;;;;;;;4961692;28;20055;-83
2024/03/09 05:37:42;;;;;;;14.90;9.02;;;;;;;;;;4979285;28;20055;-84
2024/03/09 05:40:10;;;;;;;14.38;8.57;;;;;;;;;;4959211;28;20055;-85
2024/03/09 05:42:37;;;;;;;17.42;10.65;;;;;;;;;;4959434;28;20078;-84
2024/03/09 05:45:05;;;;;;;15.32;10.32;;;;;;;;;;4972068;28;20493;-83
2024/03/09 05:47:32;;;;;;;16.30;9.25;;;;;;;;;;4973117;28;20291;-84
2024/03/09 05:49:58;;;;;;;20.55;9.90;;;;;;;;;;4959196;28;20071;-85
2024/03/09 05:52:26;;;;;;;16.45;9.85;;;;;;;;;;4964504;28;20058;-86
2024/03/09 05:54:53;;;;;;;17.40;10.02;;;;;;;;;;4994343;28;20129;-87
2024/03/09 05:57:22;;;;;;;16.92;9.70;;;;;;;;;;4956085;28;20130;-85
2024/03/09 05:59:49;;;;;;;15.20;8.65;;;;;;;;;;4969755;28;20051;-85
2024/03/09 06:02:16;;;;;;;18.38;9.88;;;;;;;;;;4974426;28;20569;-84
2024/03/09 06:04:44;;;;;;;18.60;9.85;;;;;;;;;;4970847;28;20517;-85
2024/03/09 06:07:11;;;;;;;14.93;9.30;;;;;;;;;;4972472;28;20050;-86
2024/03/09 06:09:37;;;;;;;12.55;8.30;;;;;;;;;;4965916;28;20536;-85
2024/03/09 06:12:04;;;;;;;17.45;8.95;;;;;;;;;;4968559;28;20089;-84
2024/03/09 06:14:31;;;;;;;17.73;9.93;;;;;;;;;;4954566;28;20072;-85
2024/03/09 06:16:58;;;;;;;16.05;9.73;;;;;;;;;;4971829;28;20106;-85
2024/03/09 06:19:24;;;;;;;17.27;8.75;;;;;;;;;;4978950;28;20457;-84
2024/03/09 06:21:51;;;;;;;18.13;9.70;;;;;;;;;;4970848;28;20043;-85
2024/03/09 06:24:18;;;;;;;17.30;9.93;;;;;;;;;;4955584;28;20098;-84
2024/03/09 06:26:45;;;;;;;21.05;10.65;;;;;;;;;;4972427;28;20078;-84
2024/03/09 06:29:11;;;;;;;21.35;10.82;;;;;;;;;;4953747;28;20043;-85
2024/03/09 06:31:38;;;;;;;17.00;9.07;;;;;;;;;;4951664;28;20541;-86
2024/03/09 06:34:05;;;;;;;16.63;8.75;;;;;;;;;;4965332;28;20150;-84
2024/03/09 06:36:33;;;;;;;16.08;9.55;;;;;;;;;;4977793;28;20073;-85
2024/03/09 06:39:00;;;;;;;17.73;9.85;;;;;;;;;;4967565;28;20069;-85
2024/03/09 06:41:26;;;;;;;16.55;9.02;;;;;;;;;;4969528;28;20054;-84
2024/03/09 06:43:53;;;;;;;15.68;9.45;;;;;;;;;;4973390;28;20417;-84
2024/03/09 06:46:19;;;;;;;16.13;9.35;;;;;;;;;;4970857;28;20105;-86
2024/03/09 06:48:48;;;;;;;19.67;9.65;;;;;;;;;;4962730;28;20082;-83
2024/03/09 06:51:15;;;;;;;20.83;10.85;;;;;;;;;;4981571;28;20046;-83
2024/03/09 06:53:43;;;;;;;19.35;9.57;;;;;;;;;;4978577;28;20090;-82
2024/03/09 06:56:10;;;;;;;17.27;9.75;;;;;;;;;;4977930;28;20097;-86
2024/03/09 06:58:37;;;;;;;16.65;9.95;;;;;;;;;;4992890;28;20054;-86
2024/03/09 07:01:05;;;;;;;19.05;9.63;;;;;;;;;;4964092;28;20114;-84
2024/03/09 07:03:35;;;;;;;16.30;9.98;;;;;;;;;;4961626;28;20059;-82
2024/03/09 07:06:03;;;;;;;19.52;10.50;;;;;;;;;;4962952;28;20051;-80
2024/03/09 07:08:30;;;;;;;14.50;9.10;;;;;;;;;;4979705;28;20497;-83
2024/03/09 07:10:56;;;;;;;14.85;9.43;;;;;;;;;;4962630;28;20050;-81
2024/03/09 07:13:26;;;;;;;16.90;9.82;;;;;;;;;;4979556;28;20050;-79
2024/03/09 07:15:53;;;;;;;19.95;11.57;;;;;;;;;;4962896;28;20069;-81
2024/03/09 07:18:21;;;;;;;20.33;10.77;;;;;;;;;;4975771;28;20071;-81
2024/03/09 07:20:49;;;;;;;15.60;9.90;;;;;;;;;;4956678;28;20042;-78
2024/03/09 07:23:16;;;;;;;15.10;8.90;;;;;;;;;;4988562;28;20563;-80
2024/03/09 07:25:43;;;;;;;17.35;9.60;;;;;;;;;;4972882;28;20043;-80
2024/03/09 07:28:11;;;;;;;19.73;10.45;;;;;;;;;;4958211;28;20053;-80
2024/03/09 07:30:40;;;;;;;18.13;9.95;;;;;;;;;;4989221;28;20094;-80
2024/03/09 07:33:07;;;;;;;18.10;9.57;;;;;;;;;;4975607;28;20059;-80
2024/03/09 07:35:34;;;;;;;17.25;9.35;;;;;;;;;;4972957;28;20607;-81
2024/03/09 07:38:01;;;;;;;15.93;10.00;;;;;;;;;;4972417;28;20051;-81
2024/03/09 07:40:33;;;;;;;16.58;10.60;;;;;;;;;;4963044;28;20077;-77
2024/03/09 07:43:01;;;;;;;17.88;10.27;;;;;;;;;;4974772;28;20049;-79
2024/03/09 07:45:29;;;;;;;19.23;10.73;;;;;;;;;;4971287;28;20055;-77
2024/03/09 07:47:58;;;;;;;16.27;9.90;;;;;;;;;;4989109;28;20137;-77
2024/03/09 07:50:27;;;;;;;17.20;10.73;;;;;;;;;;4973080;28;20125;-76
2024/03/09 07:52:55;;;;;;;16.70;10.35;;;;;;;;;;4956821;28;20047;-77
2024/03/09 07:55:27;;;;;;;19.02;10.98;;;;;;;;;;4971671;28;20159;-77
2024/03/09 07:57:58;;;;;;;18.52;11.00;;;;;;;;;;4957230;28;20055;-77
2024/03/09 08:00:44;;;;;;;17.10;10.15;;;;;;;;;;4955675;28;20057;-77
2024/03/09 08:03:12;;;;;;;15.40;9.63;;;;;;;;;;4956991;28;20416;-76
2024/03/09 08:05:40;;;;;;;18.20;10.98;;;;;;;;;;4970364;28;20335;-76
2024/03/09 08:08:09;;;;;;;16.65;10.63;;;;;;;;;;4972689;28;20601;-76
2024/03/09 08:10:39;;;;;;;16.27;10.00;;;;;;;;;;4985641;28;20071;-76
2024/03/09 08:13:06;;;;;;;15.77;10.48;;;;;;;;;;4951204;28;20050;-76
2024/03/09 08:15:32;;;;;;;17.05;10.50;;;;;;;;;;4988365;28;20042;-77
2024/03/09 08:17:59;;;;;;;16.73;10.23;;;;;;;;;;4977230;28;20043;-79
2024/03/09 08:20:26;;;;;;;17.60;10.38;;;;;;;;;;4960664;28;20043;-78
2024/03/09 08:22:54;;;;;;;18.15;11.20;;;;;;;;;;4958419;28;20061;-77
2024/03/09 08:25:25;;;;;;;20.70;10.40;;;;;;;;;;4959315;28;20047;-77
2024/03/09 08:27:52;;;;;;;18.85;10.38;;;;;;;;;;4961946;28;20497;-79
2024/03/09 08:30:19;;;;;;;17.45;10.90;;;;;;;;;;4977670;28;20049;-77
2024/03/09 08:32:46;;;;;;;19.85;10.40;;;;;;;;;;4959522;28;20125;-77
2024/03/09 08:35:16;;;;;;;19.33;11.40;;;;;;;;;;4976698;28;20078;-79
2024/03/09 08:37:43;;;;;;;20.33;10.93;;;;;;;;;;4977554;28;20106;-78
2024/03/09 08:40:11;;;;;;;15.73;9.88;;;;;;;;;;4961313;28;20063;-78
2024/03/09 08:42:37;;;;;;;17.85;10.85;;;;;;;;;;4958925;28;20050;-78
2024/03/09 08:45:09;;;;;;;16.77;10.35;;;;;;;;;;4961024;28;20078;-79
2024/03/09 08:47:38;;;;;;;16.73;10.85;;;;;;;;;;4973416;28;20457;-79
2024/03/09 08:50:09;;;;;;;18.10;9.85;;;;;;;;;;4948258;28;20113;-78
2024/03/09 08:52:36;;;;;;;16.13;10.07;;;;;;;;;;4972872;28;20059;-78
2024/03/09 08:55:03;;;;;;;18.55;10.75;;;;;;;;;;4956362;28;20055;-77
2024/03/09 08:57:31;;;;;;;17.70;11.65;;;;;;;;;;4974455;28;20139;-80
2024/03/09 09:00:05;;;;;;;18.00;12.07;;;;;;;;;;4960317;28;20436;-79
2024/03/09 09:02:31;;;;;;;;;;;;;;;;;;4974324;28;20054;-78
2024/03/09 09:04:58;;;;;;;17.67;10.32;;;;;;;;;;4975917;28;19973;-80
2024/03/09 09:07:25;;;;;;;19.98;11.77;;;;;;;;;;4969504;28;20078;-80
2024/03/09 09:09:52;;;;;;;16.80;10.27;;;;;;;;;;4975228;28;20058;-79
2024/03/09 09:12:19;;;;;;;18.83;10.80;;;;;;;;;;4954710;28;20397;-79
2024/03/09 09:14:46;;;;;;;18.10;10.82;;;;;;;;;;4974008;28;20054;-80
2024/03/09 09:17:12;;;;;;;15.40;9.77;;;;;;;;;;4957859;28;20134;-80
2024/03/09 09:19:39;;;;;;;17.13;10.00;;;;;;;;;;4967015;28;20142;-81
2024/03/09 09:22:10;;;;;;;16.92;11.48;;;;;;;;;;4951689;28;20050;-82
2024/03/09 09:24:37;;;;;;;18.50;9.88;;;;;;;;;;4959871;28;20047;-82
2024/03/09 09:27:04;;;;;;;16.85;11.02;;;;;;;;;;4974199;28;20090;-75
2024/03/09 09:29:31;;;;;;;18.83;10.18;;;;;;;;;;4971613;28;20058;-77
2024/03/09 09:32:00;;;;;;;16.45;10.02;;;;;;;;;;4963751;28;20050;-77
2024/03/09 09:34:33;;;;;;;17.80;10.55;;;;;;;;;;4955945;28;20063;-77
2024/03/09 09:37:03;;;;;;;15.00;9.82;;;;;;;;;;4969561;28;20241;-76
2024/03/09 09:39:32;;;;;;;15.15;9.73;;;;;;;;;;4968557;28;20379;-80
2024/03/09 09:42:00;;;;;;;18.05;11.45;;;;;;;;;;4983022;28;20058;-80
2024/03/09 09:44:28;;;;;;;15.48;10.23;;;;;;;;;;4982232;28;20073;-80
2024/03/09 09:46:55;;;;;;;15.80;10.38;;;;;;;;;;4982593;28;20055;-80
2024/03/09 09:49:22;;;;;;;15.73;9.98;;;;;;;;;;4985040;28;20042;-80
2024/03/09 09:51:52;;;;;;;16.98;9.65;;;;;;;;;;4979378;28;20517;-81
2024/03/09 09:54:26;;;;;;;15.85;9.82;;;;;;;;;;4969207;28;20062;-80
2024/03/09 09:56:55;;;;;;;15.18;9.60;;;;;;;;;;4978765;28;20047;-80
2024/03/09 09:59:23;;;;;;;16.95;9.48;;;;;;;;;;4963119;28;20050;-80
2024/03/09 10:01:50;;;;;;;16.13;8.75;;;;;;;;;;4968979;28;20055;-82
2024/03/09 10:04:16;;;;;;;13.90;8.73;;;;;;;;;;4966284;28;20050;-82
2024/03/09 10:06:44;;;;;;;14.80;8.52;;;;;;;;;;4988811;28;20070;-82
2024/03/09 10:09:10;;;;;;;12.68;8.40;;;;;;;;;;4977581;28;20084;-82
2024/03/09 10:11:37;;;;;;;14.65;8.48;;;;;;;;;;4974535;28;20567;-82
2024/03/09 10:14:05;;;;;;;12.07;7.50;;;;;;;;;;4989561;28;20057;-82
2024/03/09 10:16:32;;;;;;;12.88;8.77;;;;;;;;;;4973685;28;20043;-81
2024/03/09 10:19:02;;;;;;;13.35;8.60;;;;;;;;;;4973658;28;20066;-81
2024/03/09 10:21:29;;;;;;;12.60;8.60;;;;;;;;;;4988273;28;20110;-82
2024/03/09 10:24:06;;;;;;;12.68;8.15;;;;;;;;;;4969595;28;20134;-82
2024/03/09 10:26:34;;;;;;;12.48;7.85;;;;;;;;;;4970691;28;20059;-82
2024/03/09 10:29:02;;;;;;;13.43;8.43;;;;;;;;;;4970762;28;20078;-81
2024/03/09 10:31:29;;;;;;;12.95;8.55;;;;;;;;;;4981350;28;20059;-82
2024/03/09 10:33:56;;;;;;;12.88;8.35;;;;;;;;;;4973055;28;20047;-82
2024/03/09 10:36:23;;;;;;;13.23;8.77;;;;;;;;;;4989528;28;20051;-82
2024/03/09 10:38:57;;;;;;;13.30;8.55;;;;;;;;;;4976464;28;20429;-81
2024/03/09 10:41:25;;;;;;;13.35;8.50;;;;;;;;;;4975777;28;20493;-81
2024/03/09 10:43:53;;;;;;;12.10;8.23;;;;;;;;;;4988318;28;20062;-81
2024/03/09 10:46:25;;;;;;;12.27;7.93;;;;;;;;;;4962444;28;20081;-82
2024/03/09 10:48:56;;;;;;;10.32;7.20;;;;;;;;;;4990290;28;20055;-82
2024/03/09 10:51:35;;;;;;;12.50;7.50;;;;;;;;;;4979202;28;20075;-80
2024/03/09 10:54:23;;;;;;;10.50;7.25;;;;;;;;;;4972417;28;20464;-80
2024/03/09 10:56:51;;;;;;;12.27;8.20;;;;;;;;;;4959517;28;20057;-82
2024/03/09 10:59:25;;;;;;;14.52;8.10;;;;;;;;;;4972288;28;20047;-84
2024/03/09 11:01:54;;;;;;;10.52;7.30;;;;;;;;;;4973570;28;20616;-82
2024/03/09 11:04:24;;;;;;;11.82;7.88;;;;;;;;;;4984490;28;20046;-79
2024/03/09 11:06:51;;;;;;;11.43;7.30;;;;;;;;;;4990858;28;20050;-80
2024/03/09 11:09:18;;;;;;;12.82;8.27;;;;;;;;;;4999719;28;20061;-78
2024/03/09 11:11:48;;;;;;;11.55;7.10;;;;;;;;;;4994470;28;20085;-79
2024/03/09 11:14:22;;;;;;;9.43;5.68;;;;;;;;;;4975159;28;20047;-79
2024/03/09 11:16:53;;;;;;;8.98;5.55;;;;;;;;;;4975846;28;20138;-78
2024/03/09 11:19:20;;;;;;;6.45;5.00;;;;;;;;;;4956143;28;20055;-79
2024/03/09 11:21:51;;;;;;;6.75;4.68;;;;;;;;;;4985408;28;20047;-78
2024/03/09 11:24:19;;;;;;;6.00;4.25;;;;;;;;;;4972084;28;20162;-78
2024/03/09 11:26:52;;;;;;;7.18;4.78;;;;;;;;;;4967119;28;20087;-78
2024/03/09 11:29:22;;;;;;;8.80;5.20;;;;;;;;;;4967963;28;20402;-78
2024/03/09 11:32:01;;;;;;;9.63;5.78;;;;;;;;;;4971251;28;20051;-78
2024/03/09 11:34:29;;;;;;;9.73;6.63;;;;;;;;;;4959152;28;20074;-78
2024/03/09 11:36:57;;;;;;;7.20;5.47;;;;;;;;;;4991555;28;20146;-78
2024/03/09 11:39:31;;;;;;;7.53;5.72;;;;;;;;;;4993337;28;20078;-78
2024/03/09 11:42:00;;;;;;;7.10;4.53;;;;;;;;;;4969565;28;20086;-78
2024/03/09 11:44:33;;;;;;;7.53;5.00;;;;;;;;;;4971958;28;20051;-83
2024/03/09 11:47:03;;;;;;;7.85;4.70;;;;;;;;;;4978778;28;20062;-79
2024/03/09 11:49:34;;;;;;;7.20;4.82;;;;;;;;;;4985206;28;20062;-82
2024/03/09 11:52:02;;;;;;;6.47;4.90;;;;;;;;;;4987761;28;20465;-79
2024/03/09 11:54:29;;;;;;;6.93;4.30;;;;;;;;;;4982534;28;20051;-80
2024/03/09 11:56:56;;;;;;;8.35;4.68;;;;;;;;;;4972138;28;20062;-80
2024/03/09 11:59:26;;;;;;;6.80;4.88;;;;;;;;;;4986822;28;20062;-79
2024/03/09 12:02:02;;;;;;;5.85;4.45;;;;;;;;;;4972742;28;20488;-83
2024/03/09 12:04:32;;;;;;;5.57;4.15;;;;;;;;;;4977247;28;20049;-82
2024/03/09 12:07:06;;;;;;;5.55;3.60;;;;;;;;;;4963000;28;20109;-80
2024/03/09 12:09:33;;;;;;;5.50;3.85;;;;;;;;;;4973120;28;20051;-80
2024/03/09 12:12:01;;;;;;;6.10;4.43;;;;;;;;;;4974876;28;20087;-83
2024/03/09 12:14:29;;;;;;;5.65;4.45;;;;;;;;;;4966797;28;20050;-81
2024/03/09 12:16:56;;;;;;;7.68;4.40;;;;;;;;;;4980382;28;20087;-82
2024/03/09 12:19:24;;;;;;;5.57;3.83;;;;;;;;;;4992817;28;20071;-82
2024/03/09 12:21:52;;;;;;;4.88;3.33;;;;;;;;;;4978256;28;20505;-81
2024/03/09 12:24:19;;;;;;;4.43;3.08;;;;;;;;;;4983735;28;20442;-81
2024/03/09 12:26:46;;;;;;;5.80;4.00;;;;;;;;;;4987924;28;20078;-82
2024/03/09 12:29:12;;;;;;;4.15;2.90;;;;;;;;;;4980270;28;20087;-82
2024/03/09 12:31:40;;;;;;;6.82;3.83;;;;;;;;;;4987722;28;20066;-82
2024/03/09 12:34:10;;;;;;;5.75;3.78;;;;;;;;;;4988108;28;20050;-82
2024/03/09 12:36:39;;;;;;;5.53;3.38;;;;;;;;;;4972309;28;20051;-81
2024/03/09 12:39:16;;;;;;;5.28;3.30;;;;;;;;;;4971323;28;20116;-81
2024/03/09 12:41:48;;;;;;;5.95;3.92;;;;;;;;;;4969496;28;20059;-82
2024/03/09 12:44:15;;;;;;;4.55;2.72;;;;;;;;;;4988639;28;20509;-82
2024/03/09 12:46:43;;;;;;;8.90;3.97;;;;;;;;;;4969204;28;20094;-82
2024/03/09 12:49:13;;;;;;;4.95;3.67;;;;;;;;;;4988267;28;20054;-82
2024/03/09 12:51:40;;;;;;;6.55;4.68;;;;;;;;;;4987252;28;20473;-81
2024/03/09 12:54:08;;;;;;;5.70;3.53;;;;;;;;;;4971076;28;20050;-82
2024/03/09 12:56:35;;;;;;;5.75;4.03;;;;;;;;;;4958607;28;20089;-81
2024/03/09 12:59:02;;;;;;;5.75;4.10;;;;;;;;;;4962423;28;20078;-81
2024/03/09 13:01:30;;;;;;;6.15;3.70;;;;;;;;;;4982321;28;20090;-81
2024/03/09 13:04:11;;;;;;;5.38;3.47;;;;;;;;;;4983574;28;20046;-81
2024/03/09 13:06:41;;;;;;;4.57;3.10;;;;;;;;;;4986421;28;20058;-81
2024/03/09 13:09:10;;;;;;;3.40;2.80;;;;;;;;;;4971684;28;20050;-82
2024/03/09 13:11:37;;;;;;;4.13;2.83;;;;;;;;;;4987769;28;20051;-81
2024/03/09 13:14:04;;;;;;;4.05;3.00;;;;;;;;;;4970887;28;20079;-82
2024/03/09 13:16:32;;;;;;;3.70;2.67;;;;;;;;;;4986410;28;20090;-81
2024/03/09 13:18:58;;;;;;;5.00;3.20;;;;;;;;;;4969507;28;20054;-82
2024/03/09 13:21:26;;;;;;;6.38;3.30;;;;;;;;;;4970520;28;20117;-81
2024/03/09 13:23:58;;;;;;;5.57;3.25;;;;;;;;;;4987196;28;20070;-81
2024/03/09 13:26:25;;;;;;;4.50;3.10;;;;;;;;;;4975403;28;20046;-80
2024/03/09 13:28:52;;;;;;;5.20;3.40;;;;;;;;;;4985157;28;20054;-81
2024/03/09 13:31:22;;;;;;;5.50;2.90;;;;;;;;;;4969385;28;20524;-81
2024/03/09 13:33:49;;;;;;;5.07;3.65;;;;;;;;;;4968606;28;20593;-80
2024/03/09 13:36:23;;;;;;;5.35;3.17;;;;;;;;;;4984980;28;20082;-82
2024/03/09 13:38:49;;;;;;;5.32;3.30;;;;;;;;;;4969121;28;20081;-82
2024/03/09 13:41:16;;;;;;;5.20;3.05;;;;;;;;;;4983729;28;20058;-81
2024/03/09 13:43:44;;;;;;;3.85;3.03;;;;;;;;;;4984279;28;20051;-81
2024/03/09 13:46:10;;;;;;;3.90;2.92;;;;;;;;;;4967549;28;20113;-81
2024/03/09 13:48:40;;;;;;;4.25;3.15;;;;;;;;;;4984272;28;20055;-82
2024/03/09 13:51:08;;;;;;;4.28;3.17;;;;;;;;;;4968065;28;20082;-81
2024/03/09 13:53:39;;;;;;;6.38;3.30;;;;;;;;;;4967842;28;20067;-81
2024/03/09 13:56:12;;;;;;;5.68;3.55;;;;;;;;;;4969869;28;20116;-82
2024/03/09 13:58:40;;;;;;;4.85;3.20;;;;;;;;;;4985052;28;20058;-81
2024/03/09 14:01:10;;;;;;;4.25;3.20;;;;;;;;;;4985022;28;20051;-81
2024/03/09 14:03:36;;;;;;;5.22;3.28;;;;;;;;;;4965601;28;20047;-81
2024/03/09 14:06:05;;;;;;;5.28;3.50;;;;;;;;;;4984409;28;20079;-81
2024/03/09 14:08:32;;;;;;;4.30;3.15;;;;;;;;;;4985428;28;20050;-82
2024/03/09 14:10:59;;;;;;;5.75;3.75;;;;;;;;;;4971181;28;20119;-81
2024/03/09 14:13:25;;;;;;;3.55;3.20;;;;;;;;;;4969471;28;20078;-80
2024/03/09 14:15:52;;;;;;;5.60;2.75;;;;;;;;;;4971050;28;20062;-81
2024/03/09 14:18:21;;;;;;;3.55;2.75;;;;;;;;;;4969169;28;20054;-81
2024/03/09 14:20:50;;;;;;;3.92;3.35;;;;;;;;;;4984322;28;20505;-82
2024/03/09 14:23:22;;;;;;;4.38;3.10;;;;;;;;;;4984836;28;20579;-80
2024/03/09 14:25:52;;;;;;;3.90;2.85;;;;;;;;;;4983499;28;20047;-81
2024/03/09 14:28:19;;;;;;;4.53;2.63;;;;;;;;;;4968641;28;20051;-81
2024/03/09 14:30:46;;;;;;;3.85;2.88;;;;;;;;;;4976445;28;20110;-81
2024/03/09 14:33:12;;;;;;;5.82;2.60;;;;;;;;;;4984653;28;20082;-81
2024/03/09 14:35:40;;;;;;;4.13;2.55;;;;;;;;;;4985490;28;20050;-79
2024/03/09 14:38:08;;;;;;;4.60;2.55;;;;;;;;;;4969025;28;20054;-81
2024/03/09 14:40:35;;;;;;;4.10;2.58;;;;;;;;;;4965651;28;20564;-81